Hollins College, Virginia
Current Conditions -  °F | °C
As of 6:54 AM on Saturday 20 Dec 2014 (Local Time) from KROA Reporting Station
Overcast Overcast  
Wind Chill: -1°   Ceiling: 15000
Heat Index: -1°   Visibility: 10mi
Dew Point: -5°   Wind: 3mph
Humidity: 72%   Direction: 110°ESE
Pressure: 30.27"   Gusts: NA
Location:  37.3533°N, 79.9353°W
Report Text: KROA 201154Z 11003KT 10SM OVC150 M01/M05 A3027 RMK AO2 SLP259 T10061050 10000 21017 53008
Loading
Personal Weather Stations






























Interactive Weather Map New forecast layout! Learn more

10-Day Weather Forecast

Advertisements
Track Severe Weather on mobile